Time;durP1;ratioP1;P1;durP2;ratioP2;P2;SDS_P1;SDS_P2;PMS_P1;PMS_P2;Temp;Humidity;BMP_temperature;BMP_pressure;BME280_temperature;BME280_humidity;BME280_pressure;Samples;Min_cycle;Max_cycle;Signal;HPM_P1;HPM_P2
2023/10/12 00:02:27;;;;;;;0.90;0.90;;;17.10;99.90;;;;;;5014225;28;20036;-82
2023/10/12 00:04:59;;;;;;;0.93;0.93;;;16.80;99.90;;;;;;5026276;28;20052;-83
2023/10/12 00:07:36;;;;;;;0.93;0.93;;;16.70;99.90;;;;;;5036947;28;20049;-84
2023/10/12 00:12:50;;;;;;;0.93;0.93;;;16.50;99.90;;;;;;5020170;28;20056;-84
2023/10/12 00:15:29;;;;;;;1.38;1.35;;;16.40;99.90;;;;;;5028796;28;20128;-83
2023/10/12 00:18:08;;;;;;;1.35;1.33;;;16.50;99.90;;;;;;5053816;28;20056;-82
2023/10/12 00:20:37;;;;;;;1.42;1.38;;;16.80;99.90;;;;;;5027642;28;20053;-82
2023/10/12 00:23:10;;;;;;;1.33;1.30;;;17.00;99.90;;;;;;5028382;28;20053;-82
2023/10/12 00:26:06;;;;;;;1.40;1.33;;;16.50;99.90;;;;;;5026731;28;20041;-82
2023/10/12 00:28:38;;;;;;;1.50;1.42;;;16.70;99.90;;;;;;5030182;28;20382;-81
2023/10/12 00:31:16;;;;;;;1.48;1.40;;;16.00;99.90;;;;;;5029943;28;20059;-82
2023/10/12 00:33:42;;;;;;;1.60;1.50;;;15.90;99.90;;;;;;5023010;28;20049;-82
2023/10/12 00:36:19;;;;;;;1.58;1.48;;;15.70;99.90;;;;;;5021654;28;20040;-83
2023/10/12 00:38:46;;;;;;;1.27;1.27;;;15.70;99.90;;;;;;5026263;28;20041;-81
2023/10/12 00:41:14;;;;;;;1.50;1.40;;;16.00;99.90;;;;;;5021868;28;20080;-82
2023/10/12 00:43:53;;;;;;;1.30;1.30;;;15.60;99.90;;;;;;5020529;28;20512;-83
2023/10/12 00:46:33;;;;;;;1.45;1.38;;;15.50;99.90;;;;;;5028223;28;20825;-81
2023/10/12 00:49:19;;;;;;;1.55;1.45;;;15.50;99.90;;;;;;5022324;28;20565;-82
2023/10/12 00:51:51;;;;;;;1.35;1.33;;;15.40;99.90;;;;;;5008873;28;20128;-82
2023/10/12 00:54:32;;;;;;;1.20;1.20;;;15.70;99.90;;;;;;5032853;28;20076;-82
2023/10/12 00:57:02;;;;;;;1.25;1.25;;;15.60;99.90;;;;;;5023018;28;20041;-82
2023/10/12 00:59:34;;;;;;;1.27;1.27;;;15.20;99.90;;;;;;5037257;28;20041;-82
2023/10/12 01:02:02;;;;;;;1.30;1.30;;;15.70;99.90;;;;;;5021248;28;20057;-83
2023/10/12 01:04:31;;;;;;;1.35;1.33;;;15.20;99.90;;;;;;5052498;28;20056;-81
2023/10/12 01:07:01;;;;;;;1.30;1.30;;;15.20;99.90;;;;;;5024129;28;20045;-81
2023/10/12 01:09:39;;;;;;;1.50;1.40;;;15.50;99.90;;;;;;5023341;28;20072;-81
2023/10/12 01:12:13;;;;;;;1.60;1.50;;;15.40;99.90;;;;;;5023041;28;20055;-82
2023/10/12 01:14:44;;;;;;;1.60;1.50;;;15.20;99.90;;;;;;5024837;28;20056;-81
2023/10/12 01:17:17;;;;;;;1.40;1.40;;;15.10;99.90;;;;;;5019095;28;20085;-80
2023/10/12 01:19:46;;;;;;;;;;;15.20;99.90;;;;;;5023334;28;20133;-82
2023/10/12 01:22:13;;;;;;;1.25;1.25;;;15.30;99.90;;;;;;5005416;28;19928;-81
2023/10/12 01:27:22;;;;;;;1.55;1.45;;;14.90;99.90;;;;;;5024536;28;20063;-81
2023/10/12 01:29:49;;;;;;;1.60;1.50;;;15.00;99.90;;;;;;5025770;28;20060;-81
2023/10/12 01:34:53;;;;;;;1.58;1.48;;;15.00;99.90;;;;;;5026690;28;20045;-81
2023/10/12 01:37:24;;;;;;;1.60;1.50;;;15.00;99.90;;;;;;5053137;28;20072;-81
2023/10/12 01:39:57;;;;;;;1.60;1.50;;;15.00;99.90;;;;;;5026546;28;20578;-81
2023/10/12 01:47:54;;;;;;;1.60;1.50;;;14.90;99.90;;;;;;5026378;28;20107;-81
2023/10/12 01:50:27;;;;;;;1.70;1.60;;;15.30;99.90;;;;;;5042310;28;20367;-81
2023/10/12 01:52:54;;;;;;;1.63;1.52;;;15.20;99.90;;;;;;5029847;28;20437;-82
2023/10/12 01:55:29;;;;;;;1.63;1.52;;;14.90;99.90;;;;;;5021193;28;20102;-81
2023/10/12 01:57:55;;;;;;;1.60;1.50;;;15.30;99.90;;;;;;5031036;28;20116;-81
2023/10/12 02:00:41;;;;;;;1.33;1.33;;;14.70;99.90;;;;;;5027337;28;20639;-82
2023/10/12 02:03:17;;;;;;;1.63;1.52;;;15.20;99.90;;;;;;5023505;28;20517;-81
2023/10/12 02:05:58;;;;;;;1.60;1.50;;;15.10;99.90;;;;;;5027744;28;20124;-81
2023/10/12 02:08:39;;;;;;;1.60;1.50;;;15.00;99.90;;;;;;5029188;28;20567;-81
2023/10/12 02:11:09;;;;;;;1.63;1.52;;;14.60;99.90;;;;;;5025715;28;20060;-81
2023/10/12 02:13:35;;;;;;;1.70;1.60;;;14.80;99.90;;;;;;5024320;28;20056;-81
2023/10/12 02:16:07;;;;;;;1.67;1.58;;;14.90;99.90;;;;;;5027275;28;20056;-81
2023/10/12 02:18:36;;;;;;;1.60;1.50;;;14.40;99.90;;;;;;5009583;28;20044;-81
2023/10/12 02:31:38;;;;;;;;;;;14.50;99.90;;;;;;5024201;28;19934;-82
2023/10/12 02:34:15;;;;;;;1.35;1.33;;;14.60;99.90;;;;;;5027118;28;20003;-81
2023/10/12 02:36:41;;;;;;;1.20;1.20;;;14.80;99.90;;;;;;5058124;28;20056;-81
2023/10/12 02:39:20;;;;;;;1.30;1.30;;;14.30;99.90;;;;;;5029744;28;20059;-81
2023/10/12 02:41:52;;;;;;;1.23;1.23;;;14.60;99.90;;;;;;5025288;28;21200;-81
2023/10/12 02:44:19;;;;;;;1.60;1.50;;;14.60;99.90;;;;;;5052686;28;20536;-81
2023/10/12 02:49:34;;;;;;;1.50;1.40;;;14.60;99.90;;;;;;5058039;28;20060;-81
2023/10/12 02:52:05;;;;;;;1.30;1.30;;;14.60;99.90;;;;;;5025906;28;20041;-81
2023/10/12 02:54:49;;;;;;;1.52;1.42;;;14.30;99.90;;;;;;5009998;28;20071;-81
2023/10/12 02:57:16;;;;;;;1.50;1.40;;;14.60;99.90;;;;;;5030231;28;20044;-81
2023/10/12 02:59:42;;;;;;;1.60;1.50;;;14.60;99.90;;;;;;5025152;28;20094;-81
2023/10/12 03:02:22;;;;;;;1.50;1.40;;;14.70;99.90;;;;;;5024993;28;20053;-81
2023/10/12 03:04:48;;;;;;;1.67;1.58;;;14.80;99.90;;;;;;5024990;28;20060;-81
2023/10/12 03:07:22;;;;;;;1.50;1.40;;;14.80;99.90;;;;;;5026783;28;20044;-81
2023/10/12 03:09:57;;;;;;;1.70;1.60;;;14.80;99.90;;;;;;5040599;28;20048;-81
2023/10/12 03:12:23;;;;;;;1.60;1.50;;;14.30;99.90;;;;;;5024359;28;20116;-81
2023/10/12 03:14:53;;;;;;;1.70;1.60;;;14.30;99.90;;;;;;5030137;28;20488;-81
2023/10/12 03:17:19;;;;;;;1.52;1.42;;;14.30;99.90;;;;;;5060897;28;20841;-81
2023/10/12 03:19:55;;;;;;;1.60;1.50;;;14.40;99.90;;;;;;5031932;28;20493;-81
2023/10/12 03:22:34;;;;;;;1.30;1.30;;;14.60;99.90;;;;;;5039067;28;20047;-80
2023/10/12 03:25:19;;;;;;;1.60;1.50;;;14.80;99.90;;;;;;5058860;28;20045;-82
2023/10/12 03:27:50;;;;;;;1.50;1.40;;;14.40;99.90;;;;;;5030893;28;21400;-81
2023/10/12 03:30:17;;;;;;;1.60;1.50;;;14.40;99.90;;;;;;5034776;28;20423;-81
2023/10/12 03:32:44;;;;;;;1.67;1.58;;;14.70;99.90;;;;;;5028229;28;20048;-82
2023/10/12 03:35:15;;;;;;;1.60;1.50;;;14.70;99.90;;;;;;5029926;28;20621;-81
2023/10/12 03:37:50;;;;;;;1.60;1.50;;;14.70;99.90;;;;;;5034818;28;20049;-81
2023/10/12 03:43:09;;;;;;;1.63;1.52;;;14.60;99.90;;;;;;5056525;28;20114;-81
2023/10/12 03:45:38;;;;;;;1.73;1.63;;;14.70;99.90;;;;;;5027776;28;20053;-81
2023/10/12 03:48:15;;;;;;;1.60;1.50;;;14.60;99.90;;;;;;5032218;28;20471;-81
2023/10/12 03:51:12;;;;;;;1.55;1.45;;;14.20;99.90;;;;;;5027034;28;20688;-81
2023/10/12 03:53:45;;;;;;;1.45;1.40;;;14.60;99.90;;;;;;5030448;28;20072;-81
2023/10/12 03:56:14;;;;;;;1.55;1.45;;;14.60;99.90;;;;;;5051346;28;20391;-81
2023/10/12 03:58:46;;;;;;;1.50;1.40;;;14.30;99.90;;;;;;5033513;28;20126;-81
2023/10/12 04:03:58;;;;;;;1.80;1.70;;;14.50;99.90;;;;;;5026736;28;20056;-81
2023/10/12 04:06:29;;;;;;;1.55;1.45;;;14.60;99.90;;;;;;5056718;28;20063;-82
2023/10/12 04:08:58;;;;;;;1.80;1.70;;;14.40;99.90;;;;;;5029499;28;20051;-82
2023/10/12 04:11:47;;;;;;;1.77;1.67;;;14.20;99.90;;;;;;5026793;28;20087;-82
2023/10/12 04:17:42;;;;;;;1.80;1.70;;;14.60;99.90;;;;;;5019614;28;20518;-82
2023/10/12 04:25:21;;;;;;;1.70;1.60;;;14.50;99.90;;;;;;5055950;28;20405;-82
2023/10/12 04:27:50;;;;;;;1.80;1.70;;;14.30;99.90;;;;;;5030060;28;20044;-82
2023/10/12 04:30:33;;;;;;;1.60;1.50;;;14.40;99.90;;;;;;5036432;28;20084;-82
2023/10/12 04:33:24;;;;;;;1.80;1.70;;;14.50;99.90;;;;;;5025381;28;20060;-83
2023/10/12 04:44:06;;;;;;;1.80;1.70;;;14.70;99.90;;;;;;5007007;28;20420;-82
2023/10/12 04:46:47;;;;;;;1.90;1.80;;;14.70;99.90;;;;;;5019511;28;20093;-82
2023/10/12 04:51:41;;;;;;;1.90;1.80;;;14.60;99.90;;;;;;5026424;28;20214;-83
2023/10/12 04:54:23;;;;;;;1.70;1.60;;;14.70;99.90;;;;;;5023164;28;20591;-83
2023/10/12 04:57:13;;;;;;;1.90;1.80;;;14.80;99.90;;;;;;5053433;28;20063;-82
2023/10/12 04:59:49;;;;;;;2.00;1.90;;;14.50;99.90;;;;;;5029590;28;20094;-82
2023/10/12 05:09:51;;;;;;;1.80;1.70;;;14.30;99.90;;;;;;5027956;28;20048;-83
2023/10/12 05:12:25;;;;;;;1.90;1.80;;;14.50;99.90;;;;;;5034129;28;20064;-83
2023/10/12 05:14:55;;;;;;;1.70;1.60;;;14.40;99.90;;;;;;5026711;28;20122;-82
2023/10/12 05:17:24;;;;;;;1.70;1.60;;;14.20;99.90;;;;;;5012012;28;20171;-82
2023/10/12 05:19:53;;;;;;;1.88;1.77;;;14.50;99.90;;;;;;5028337;28;20053;-83
2023/10/12 05:22:20;;;;;;;1.80;1.70;;;14.50;99.90;;;;;;5030409;28;20048;-83
2023/10/12 05:24:48;;;;;;;1.80;1.70;;;14.50;99.90;;;;;;5057873;28;20139;-83
2023/10/12 05:27:23;;;;;;;1.80;1.70;;;14.70;99.90;;;;;;5050358;28;20135;-83
2023/10/12 05:29:52;;;;;;;1.90;1.80;;;14.60;99.90;;;;;;5026795;28;20049;-83
2023/10/12 05:32:36;;;;;;;1.88;1.77;;;14.50;99.90;;;;;;5024555;28;20059;-83
2023/10/12 05:35:05;;;;;;;1.67;1.58;;;14.20;99.90;;;;;;5039173;28;20053;-83
2023/10/12 05:37:38;;;;;;;1.90;1.80;;;14.60;99.90;;;;;;5025321;28;20081;-83
2023/10/12 05:40:10;;;;;;;1.90;1.80;;;14.60;99.90;;;;;;5007129;28;20049;-83
2023/10/12 05:42:39;;;;;;;1.80;1.70;;;14.60;99.90;;;;;;5023396;28;20102;-83
2023/10/12 05:45:22;;;;;;;1.90;1.80;;;14.30;99.90;;;;;;5027488;28;20593;-83
2023/10/12 05:47:52;;;;;;;1.90;1.80;;;14.80;99.90;;;;;;5025465;28;20052;-83
2023/10/12 05:50:23;;;;;;;1.80;1.70;;;14.70;99.90;;;;;;5024620;28;20049;-83
2023/10/12 05:52:52;;;;;;;1.90;1.80;;;14.50;99.90;;;;;;5051794;28;20044;-83
2023/10/12 05:55:24;;;;;;;1.90;1.80;;;14.50;99.90;;;;;;5012614;28;20048;-83
2023/10/12 05:57:50;;;;;;;2.00;1.90;;;14.30;99.90;;;;;;5054071;28;20182;-83
2023/10/12 06:03:07;;;;;;;2.00;1.90;;;14.30;99.90;;;;;;5045561;28;20064;-83
2023/10/12 06:05:34;;;;;;;1.90;1.80;;;14.40;99.90;;;;;;5028444;28;20052;-82
2023/10/12 06:08:03;;;;;;;1.83;1.73;;;14.80;99.90;;;;;;5024512;28;20069;-82
2023/10/12 06:10:29;;;;;;;2.00;1.90;;;14.50;99.90;;;;;;5028192;28;20521;-83
2023/10/12 06:12:58;;;;;;;2.00;1.90;;;14.20;99.90;;;;;;5036049;28;20045;-86
2023/10/12 06:15:28;;;;;;;1.90;1.80;;;14.20;99.90;;;;;;5056409;28;20049;-83
2023/10/12 06:17:55;;;;;;;2.03;1.92;;;14.70;99.90;;;;;;5029296;28;20056;-84
2023/10/12 06:23:16;;;;;;;2.03;1.92;;;14.70;99.90;;;;;;5006324;28;20045;-82
2023/10/12 06:25:43;;;;;;;1.90;1.80;;;14.60;99.90;;;;;;5024032;28;20051;-83
2023/10/12 06:28:18;;;;;;;2.00;1.90;;;14.50;99.90;;;;;;5026427;28;20155;-84
2023/10/12 06:30:51;;;;;;;1.98;1.88;;;14.30;99.90;;;;;;5043914;28;20047;-87
2023/10/12 06:33:17;;;;;;;2.00;1.90;;;14.60;99.90;;;;;;5008647;28;20102;-82
2023/10/12 06:36:00;;;;;;;1.95;1.85;;;14.80;99.90;;;;;;5027526;28;20413;-82
2023/10/12 06:38:38;;;;;;;2.05;1.95;;;14.50;99.90;;;;;;5030010;28;20410;-83
2023/10/12 06:46:19;;;;;;;1.90;1.80;;;14.60;99.90;;;;;;5028216;28;20785;-83
2023/10/12 06:48:45;;;;;;;2.10;2.00;;;14.20;99.90;;;;;;5029589;28;20050;-84
2023/10/12 06:51:13;;;;;;;2.00;1.90;;;14.20;99.90;;;;;;5059267;28;20084;-84
2023/10/12 06:53:41;;;;;;;1.95;1.85;;;14.60;99.90;;;;;;5029326;28;20115;-83
2023/10/12 06:58:42;;;;;;;2.00;1.90;;;14.50;99.90;;;;;;5054075;28;20041;-82
2023/10/12 07:01:26;;;;;;;1.92;1.83;;;14.80;99.90;;;;;;5028048;28;20080;-84
2023/10/12 07:03:55;;;;;;;1.95;1.85;;;14.80;99.90;;;;;;5028586;28;20045;-85
2023/10/12 07:06:21;;;;;;;2.05;1.95;;;14.50;99.90;;;;;;5028932;28;20075;-82
2023/10/12 07:08:46;;;;;;;2.08;1.98;;;14.30;99.90;;;;;;5026575;28;20081;-82
2023/10/12 07:11:21;;;;;;;1.92;1.83;;;14.50;99.90;;;;;;5030255;28;20045;-85
2023/10/12 07:13:49;;;;;;;2.08;1.98;;;14.50;99.90;;;;;;5027633;28;20759;-84
2023/10/12 07:16:16;;;;;;;2.03;1.92;;;14.30;99.90;;;;;;5029659;28;20847;-83
2023/10/12 07:18:45;;;;;;;2.05;1.95;;;14.60;99.90;;;;;;5030070;28;20055;-83
2023/10/12 07:21:21;;;;;;;2.15;2.05;;;14.30;99.90;;;;;;5009454;28;20548;-82
2023/10/12 07:23:55;;;;;;;1.98;1.88;;;14.40;99.90;;;;;;5025637;28;20040;-82
2023/10/12 07:26:23;;;;;;;2.15;2.05;;;14.90;99.90;;;;;;5025091;28;20061;-82
2023/10/12 07:28:55;;;;;;;2.00;1.90;;;14.70;99.90;;;;;;5063364;28;20056;-83
2023/10/12 07:31:37;;;;;;;1.98;1.88;;;14.60;99.90;;;;;;5050156;28;20063;-84
2023/10/12 07:34:05;;;;;;;2.03;1.92;;;14.80;99.90;;;;;;5028107;28;20052;-85
2023/10/12 07:41:41;;;;;;;2.10;2.00;;;14.50;99.90;;;;;;5031057;28;20074;-85
2023/10/12 07:44:07;;;;;;;1.73;1.63;;;14.50;99.90;;;;;;5043623;28;20048;-83
2023/10/12 07:46:35;;;;;;;1.33;1.33;;;14.60;99.90;;;;;;5029204;28;20094;-83
2023/10/12 07:52:04;;;;;;;1.20;1.20;;;14.70;99.90;;;;;;5008054;28;20041;-86
2023/10/12 07:57:36;;;;;;;1.92;1.83;;;15.30;99.90;;;;;;4947304;28;20055;-88
2023/10/12 08:08:17;;;;;;;2.00;1.90;;;15.90;99.90;;;;;;5045025;28;20052;-84
2023/10/12 08:13:25;;;;;;;1.90;1.80;;;16.70;99.90;;;;;;5030205;28;20045;-85
2023/10/12 08:21:10;;;;;;;1.17;1.17;;;17.00;99.90;;;;;;5061860;28;20060;-82
2023/10/12 08:23:37;;;;;;;1.50;1.43;;;17.00;99.90;;;;;;5026220;28;20045;-86
2023/10/12 08:26:03;;;;;;;1.45;1.40;;;17.00;99.90;;;;;;5030276;28;20048;-83
2023/10/12 08:28:37;;;;;;;1.58;1.48;;;17.10;99.90;;;;;;5032828;28;20048;-82
2023/10/12 08:31:14;;;;;;;1.40;1.35;;;17.20;99.90;;;;;;5030445;28;20137;-87
2023/10/12 08:33:49;;;;;;;1.55;1.45;;;17.20;99.90;;;;;;5030341;28;20049;-85
2023/10/12 08:38:52;;;;;;;1.73;1.63;;;17.10;99.90;;;;;;5029608;28;20049;-84
2023/10/12 08:41:37;;;;;;;1.65;1.55;;;17.10;99.90;;;;;;5028458;28;20047;-84
2023/10/12 08:44:05;;;;;;;1.63;1.52;;;17.10;99.90;;;;;;5031123;28;20047;-83
2023/10/12 08:52:07;;;;;;;1.33;1.30;;;16.30;99.90;;;;;;5033164;28;20419;-85
2023/10/12 08:54:37;;;;;;;1.27;1.27;;;16.30;99.90;;;;;;5027010;28;20060;-85
2023/10/12 08:57:38;;;;;;;1.30;1.30;;;16.30;99.90;;;;;;5011242;28;20663;-84
2023/10/12 09:01:07;;;;;;;1.25;1.25;;;16.50;99.90;;;;;;5012521;28;20113;-83
2023/10/12 09:03:00;;;;;;;1.35;1.33;;;16.50;99.90;;;;;;5018495;28;20037;-84
2023/10/12 09:05:30;;;;;;;1.30;1.30;;;16.20;99.90;;;;;;5061130;28;20060;-84
2023/10/12 09:10:55;;;;;;;1.20;1.20;;;16.30;99.90;;;;;;5064520;28;20081;-85
2023/10/12 09:13:25;;;;;;;1.23;1.23;;;16.30;99.90;;;;;;5060217;28;20052;-85
2023/10/12 09:15:55;;;;;;;1.25;1.25;;;16.30;99.90;;;;;;5061785;28;20074;-86
2023/10/12 09:18:27;;;;;;;1.25;1.25;;;16.20;99.90;;;;;;5015025;28;20064;-87
2023/10/12 09:23:31;;;;;;;1.27;1.27;;;16.30;99.90;;;;;;5060169;28;20075;-85
2023/10/12 09:26:14;;;;;;;1.17;1.17;;;16.40;99.90;;;;;;5034227;28;20514;-87
2023/10/12 09:36:29;;;;;;;1.23;1.23;;;16.40;99.90;;;;;;5032341;28;20574;-82
2023/10/12 09:39:00;;;;;;;1.30;1.30;;;16.40;99.90;;;;;;5035527;28;20053;-84
2023/10/12 09:41:33;;;;;;;1.23;1.23;;;16.50;99.90;;;;;;5055431;28;20084;-85
2023/10/12 09:44:04;;;;;;;1.23;1.23;;;16.30;99.90;;;;;;5030386;28;20598;-86
2023/10/12 09:46:32;;;;;;;1.20;1.20;;;16.40;99.90;;;;;;5024328;28;20509;-83
2023/10/12 09:49:02;;;;;;;1.23;1.23;;;16.40;99.90;;;;;;5056709;28;20132;-85
2023/10/12 09:51:35;;;;;;;1.20;1.20;;;16.30;99.90;;;;;;5055775;28;20048;-84
2023/10/12 09:54:15;;;;;;;1.25;1.25;;;16.20;99.90;;;;;;5072613;28;20047;-86
2023/10/12 09:56:47;;;;;;;1.30;1.30;;;16.40;99.90;;;;;;5031358;28;20052;-86
2023/10/12 09:59:20;;;;;;;1.20;1.20;;;16.40;99.90;;;;;;5036389;28;20048;-89
2023/10/12 10:01:49;;;;;;;1.25;1.25;;;16.30;99.90;;;;;;5069105;28;20842;-86
2023/10/12 10:07:14;;;;;;;1.23;1.23;;;16.40;99.90;;;;;;5026381;28;20120;-86
2023/10/12 10:09:45;;;;;;;1.20;1.20;;;16.40;99.90;;;;;;5015431;28;20071;-84
2023/10/12 10:12:17;;;;;;;1.20;1.20;;;16.40;99.90;;;;;;5026008;28;20088;-83
2023/10/12 10:14:45;;;;;;;1.20;1.20;;;16.30;99.90;;;;;;5029104;28;20151;-85
2023/10/12 10:17:14;;;;;;;1.20;1.20;;;16.50;99.90;;;;;;5030951;28;20050;-83
2023/10/12 10:19:43;;;;;;;1.20;1.20;;;16.30;99.90;;;;;;5028302;28;20502;-84
2023/10/12 10:22:14;;;;;;;1.13;1.13;;;16.40;99.90;;;;;;5028567;28;20414;-83
2023/10/12 10:24:55;;;;;;;1.15;1.15;;;16.40;99.90;;;;;;5050938;28;20513;-84
2023/10/12 10:27:33;;;;;;;1.17;1.17;;;16.60;99.90;;;;;;5027435;28;20057;-83
2023/10/12 10:30:26;;;;;;;1.20;1.20;;;16.60;99.90;;;;;;5028712;28;20041;-84
2023/10/12 10:33:17;;;;;;;1.20;1.20;;;17.00;99.90;;;;;;5035773;28;20079;-84
2023/10/12 10:38:53;;;;;;;1.30;1.30;;;17.30;99.90;;;;;;5034790;28;20770;-83
2023/10/12 10:41:37;;;;;;;1.20;1.20;;;17.40;99.90;;;;;;5013540;28;20052;-84
2023/10/12 10:44:03;;;;;;;1.17;1.17;;;17.20;99.90;;;;;;5029177;28;20388;-84
2023/10/12 10:46:30;;;;;;;1.30;1.30;;;16.90;99.90;;;;;;5026440;28;20048;-84
2023/10/12 10:48:56;;;;;;;1.20;1.20;;;17.00;99.90;;;;;;5030131;28;20053;-83
2023/10/12 10:51:27;;;;;;;1.23;1.23;;;16.80;99.90;;;;;;5024618;28;20048;-83
2023/10/12 10:53:54;;;;;;;1.17;1.17;;;16.70;99.90;;;;;;5024828;28;20502;-84
2023/10/12 10:56:38;;;;;;;1.17;1.17;;;16.70;99.90;;;;;;5026898;28;20048;-83
2023/10/12 10:59:12;;;;;;;1.13;1.13;;;16.90;99.90;;;;;;5063187;28;22081;-83
2023/10/12 11:01:48;;;;;;;1.17;1.17;;;16.60;99.90;;;;;;5063486;28;20079;-83
2023/10/12 11:04:18;;;;;;;1.15;1.15;;;16.40;99.90;;;;;;5033510;28;20157;-84
2023/10/12 11:06:53;;;;;;;1.20;1.20;;;16.40;99.90;;;;;;5029136;28;20041;-85
2023/10/12 11:09:31;;;;;;;1.08;1.08;;;16.40;99.90;;;;;;5033850;28;20048;-83
2023/10/12 11:11:59;;;;;;;1.15;1.15;;;16.30;99.90;;;;;;5010509;28;20586;-83
2023/10/12 11:14:31;;;;;;;1.10;1.10;;;16.40;99.90;;;;;;5045866;28;20037;-83
2023/10/12 11:16:58;;;;;;;1.05;1.05;;;16.20;99.90;;;;;;5025473;28;20057;-83
2023/10/12 11:19:25;;;;;;;1.02;1.02;;;16.70;99.90;;;;;;5031298;28;20081;-83
2023/10/12 11:21:57;;;;;;;1.10;1.10;;;16.60;99.90;;;;;;5055601;28;20132;-82
2023/10/12 11:24:24;;;;;;;1.20;1.20;;;16.60;99.90;;;;;;5034888;28;20950;-83
2023/10/12 11:26:57;;;;;;;1.13;1.13;;;16.50;99.90;;;;;;5035310;28;20124;-85
2023/10/12 11:29:24;;;;;;;1.45;1.40;;;16.10;99.90;;;;;;5027364;28;20056;-89
2023/10/12 11:32:08;;;;;;;1.10;1.10;;;16.00;99.90;;;;;;5027365;28;20056;-82
2023/10/12 11:34:53;;;;;;;1.20;1.20;;;16.10;99.90;;;;;;5028292;28;20171;-86
2023/10/12 11:37:20;;;;;;;1.17;1.17;;;16.10;99.90;;;;;;5031792;28;20060;-83
2023/10/12 11:39:47;;;;;;;1.20;1.20;;;16.10;99.90;;;;;;5032508;28;20498;-82
2023/10/12 11:42:14;;;;;;;1.10;1.10;;;16.10;99.90;;;;;;5034685;28;20509;-83
2023/10/12 11:44:44;;;;;;;1.10;1.10;;;16.20;99.90;;;;;;5038847;28;20041;-83
2023/10/12 11:47:13;;;;;;;1.30;1.30;;;16.40;99.90;;;;;;5028632;28;20110;-82
2023/10/12 11:49:57;;;;;;;1.30;1.30;;;16.30;99.90;;;;;;5036395;28;20059;-83
2023/10/12 11:52:29;;;;;;;;;;;16.30;99.90;;;;;;5042486;28;20041;-84
2023/10/12 11:55:07;;;;;;;1.20;1.20;;;16.10;99.90;;;;;;5029365;28;19978;-83
2023/10/12 11:57:40;;;;;;;1.33;1.30;;;16.10;99.90;;;;;;5038540;28;20406;-82
2023/10/12 12:00:44;;;;;;;1.10;1.10;;;16.20;99.90;;;;;;5014299;28;20045;-82
2023/10/12 12:03:02;;;;;;;1.20;1.20;;;16.10;99.90;;;;;;5035180;28;20056;-83
2023/10/12 12:05:33;;;;;;;1.85;1.75;;;16.20;99.90;;;;;;5028962;28;20080;-82
2023/10/12 12:08:05;;;;;;;1.95;1.85;;;15.70;99.90;;;;;;5044590;28;20049;-82
2023/10/12 12:10:40;;;;;;;1.80;1.70;;;15.70;99.90;;;;;;5027065;28;20076;-83
2023/10/12 12:13:09;;;;;;;2.03;1.92;;;15.60;99.90;;;;;;5064512;28;20128;-82
2023/10/12 12:15:44;;;;;;;1.92;1.83;;;15.30;99.90;;;;;;5038521;28;20048;-84
2023/10/12 12:18:29;;;;;;;1.50;1.40;;;15.40;99.90;;;;;;5033433;28;20044;-82
2023/10/12 12:21:02;;;;;;;2.05;1.95;;;15.50;99.90;;;;;;5025721;28;20052;-83
2023/10/12 12:23:33;;;;;;;1.52;1.42;;;15.20;99.90;;;;;;5029986;28;20115;-83
2023/10/12 12:26:09;;;;;;;1.77;1.67;;;15.10;99.90;;;;;;5063349;28;20747;-82
2023/10/12 12:28:45;;;;;;;2.05;1.95;;;15.10;99.90;;;;;;5035192;28;20048;-82
2023/10/12 12:31:14;;;;;;;2.67;2.55;;;14.90;99.90;;;;;;5035793;28;20398;-82
2023/10/12 12:33:43;;;;;;;1.55;1.45;;;14.70;99.90;;;;;;5028930;28;20119;-82
2023/10/12 12:36:13;;;;;;;3.08;2.88;;;14.70;99.90;;;;;;5058495;28;20064;-82
2023/10/12 12:41:18;;;;;;;2.10;2.00;;;14.50;99.90;;;;;;5029257;28;20662;-83
2023/10/12 12:43:47;;;;;;;3.10;2.90;;;14.20;99.90;;;;;;5027964;28;20633;-82
2023/10/12 12:46:13;;;;;;;2.03;1.92;;;14.00;99.90;;;;;;5032290;28;20041;-83
2023/10/12 12:48:39;;;;;;;1.20;1.20;;;14.20;99.90;;;;;;5032163;28;20106;-82
2023/10/12 12:51:11;;;;;;;1.50;1.40;;;14.40;99.90;;;;;;5032799;28;20040;-82
2023/10/12 12:53:37;;;;;;;1.50;1.40;;;14.20;99.90;;;;;;5036632;28;20052;-82
2023/10/12 12:56:03;;;;;;;1.50;1.40;;;14.10;99.90;;;;;;5034523;28;20131;-83
2023/10/12 12:58:33;;;;;;;1.50;1.40;;;14.20;99.90;;;;;;5033731;28;20051;-82
2023/10/12 13:01:00;;;;;;;1.60;1.50;;;14.00;99.90;;;;;;5060627;28;20045;-82
2023/10/12 13:03:28;;;;;;;1.58;1.48;;;14.30;99.90;;;;;;5047158;28;20045;-82
2023/10/12 13:05:54;;;;;;;1.63;1.52;;;14.40;99.90;;;;;;5040742;28;20443;-82
2023/10/12 13:08:20;;;;;;;1.90;1.80;;;14.50;99.90;;;;;;5029237;28;20051;-82
2023/10/12 13:10:46;;;;;;;1.80;1.70;;;14.40;99.90;;;;;;5033113;28;20060;-81
2023/10/12 13:13:14;;;;;;;3.60;3.25;;;14.40;99.90;;;;;;5030314;28;20060;-81
2023/10/12 13:15:47;;;;;;;1.33;1.30;;;14.40;99.90;;;;;;5052566;28;20095;-82
2023/10/12 13:18:15;;;;;;;1.95;1.85;;;14.50;99.90;;;;;;5029359;28;20048;-81
2023/10/12 13:20:46;;;;;;;1.70;1.60;;;14.10;99.90;;;;;;5032302;28;20040;-81
2023/10/12 13:23:13;;;;;;;1.70;1.60;;;14.30;99.90;;;;;;5043577;28;20095;-81
2023/10/12 13:25:40;;;;;;;1.73;1.63;;;14.40;99.90;;;;;;5027358;28;20045;-81
2023/10/12 13:28:05;;;;;;;1.88;1.77;;;14.50;99.90;;;;;;5027046;28;20048;-81
2023/10/12 13:30:33;;;;;;;2.00;1.90;;;14.20;99.90;;;;;;5030434;28;20040;-81
2023/10/12 13:33:00;;;;;;;1.88;1.77;;;14.60;99.90;;;;;;5024160;28;20046;-82
2023/10/12 13:35:47;;;;;;;1.80;1.70;;;14.70;99.90;;;;;;5027842;28;20063;-82
2023/10/12 13:38:13;;;;;;;1.85;1.75;;;14.30;99.90;;;;;;5026633;28;20456;-82
2023/10/12 13:40:41;;;;;;;1.70;1.60;;;13.90;99.90;;;;;;5026322;28;20137;-81
2023/10/12 13:43:14;;;;;;;1.80;1.70;;;14.00;99.90;;;;;;5057846;28;20061;-82
2023/10/12 13:45:47;;;;;;;1.80;1.70;;;14.30;99.90;;;;;;5028939;28;20406;-82
2023/10/12 13:48:29;;;;;;;1.80;1.70;;;14.20;99.90;;;;;;5072156;28;20045;-82
2023/10/12 13:51:01;;;;;;;2.30;2.20;;;14.10;99.90;;;;;;5032676;28;20060;-82
2023/10/12 13:53:27;;;;;;;1.90;1.80;;;13.80;99.90;;;;;;5034580;28;20411;-82
2023/10/12 13:55:53;;;;;;;1.80;1.70;;;13.80;99.90;;;;;;5030791;28;20048;-82
2023/10/12 13:58:25;;;;;;;1.90;1.80;;;14.00;99.90;;;;;;5022006;28;20053;-82
2023/10/12 14:00:54;;;;;;;1.90;1.80;;;13.70;99.90;;;;;;5025691;28;20128;-85
2023/10/12 14:03:34;;;;;;;1.75;1.65;;;13.80;99.90;;;;;;5031578;28;20045;-84
2023/10/12 14:06:01;;;;;;;1.63;1.52;;;14.00;99.90;;;;;;5022803;28;20063;-81
2023/10/12 14:08:32;;;;;;;2.00;1.90;;;14.10;99.90;;;;;;5025096;28;20045;-81
2023/10/12 14:11:03;;;;;;;1.90;1.80;;;13.80;99.90;;;;;;5028711;28;20514;-82
2023/10/12 14:13:30;;;;;;;1.90;1.80;;;13.70;99.90;;;;;;5027485;28;20101;-82
2023/10/12 14:15:55;;;;;;;1.98;1.88;;;13.50;99.90;;;;;;5027194;28;20056;-82
2023/10/12 14:18:21;;;;;;;2.00;1.90;;;13.50;99.90;;;;;;5024646;28;20048;-82
2023/10/12 14:20:47;;;;;;;1.90;1.80;;;13.70;99.90;;;;;;5022419;28;20465;-82
2023/10/12 14:23:13;;;;;;;2.20;2.10;;;13.50;99.90;;;;;;5026379;28;20045;-82
2023/10/12 14:25:47;;;;;;;1.77;1.67;;;13.30;99.90;;;;;;5023124;28;20055;-82
2023/10/12 14:28:17;;;;;;;1.80;1.70;;;13.40;99.90;;;;;;5052048;28;20057;-82
2023/10/12 14:30:47;;;;;;;1.90;1.80;;;13.40;99.90;;;;;;5029553;28;20127;-82
2023/10/12 14:33:19;;;;;;;1.80;1.70;;;13.50;99.90;;;;;;5057140;28;20576;-81
2023/10/12 14:35:45;;;;;;;1.67;1.58;;;13.50;99.90;;;;;;5021701;28;20052;-81
2023/10/12 14:38:16;;;;;;;1.67;1.58;;;13.80;99.90;;;;;;5029619;28;20049;-82
2023/10/12 14:40:44;;;;;;;1.50;1.40;;;13.70;99.90;;;;;;5029953;28;20132;-81
2023/10/12 14:43:15;;;;;;;1.92;1.83;;;13.60;99.90;;;;;;5023105;28;20037;-82
2023/10/12 14:45:48;;;;;;;1.80;1.70;;;13.50;99.90;;;;;;5019983;28;20033;-82
2023/10/12 14:48:16;;;;;;;1.70;1.60;;;13.40;99.90;;;;;;5023414;28;20049;-82
2023/10/12 14:50:45;;;;;;;1.63;1.52;;;13.40;99.90;;;;;;5037739;28;20055;-81
2023/10/12 14:53:15;;;;;;;1.70;1.60;;;13.70;99.90;;;;;;5020547;28;20067;-82
2023/10/12 14:55:48;;;;;;;1.67;1.58;;;13.80;99.90;;;;;;5033181;28;20082;-82
2023/10/12 14:58:16;;;;;;;1.60;1.50;;;13.60;99.90;;;;;;5049175;28;20049;-81
2023/10/12 15:00:45;;;;;;;1.50;1.40;;;13.40;99.90;;;;;;5045778;28;20049;-82
2023/10/12 15:03:11;;;;;;;1.50;1.40;;;13.30;99.90;;;;;;5019514;28;20116;-82
2023/10/12 15:05:38;;;;;;;1.75;1.65;;;13.40;99.90;;;;;;5022223;28;20079;-82
2023/10/12 15:08:06;;;;;;;1.75;1.65;;;13.70;99.90;;;;;;5023913;28;20686;-81
2023/10/12 15:10:36;;;;;;;1.50;1.40;;;13.30;99.90;;;;;;5019061;28;20061;-83
2023/10/12 15:13:04;;;;;;;1.63;1.52;;;13.20;99.90;;;;;;5026987;28;20057;-82
2023/10/12 15:15:33;;;;;;;1.75;1.65;;;13.50;99.90;;;;;;5024125;28;20095;-82
2023/10/12 15:17:59;;;;;;;2.00;1.90;;;13.80;99.90;;;;;;5055561;28;20052;-82
2023/10/12 15:20:26;;;;;;;1.90;1.80;;;13.70;99.90;;;;;;5027493;28;20084;-83
2023/10/12 15:22:55;;;;;;;1.95;1.85;;;13.50;99.90;;;;;;5026669;28;20048;-82